createdAt,value
2022-11-30T00:00:14.311Z,19.58
2022-11-30T00:05:15.732Z,18.52
2022-11-30T00:10:17.576Z,20.02
2022-11-30T00:15:18.915Z,18.98
2022-11-30T00:20:20.264Z,20.52
2022-11-30T00:25:21.618Z,20.25
2022-11-30T00:30:22.952Z,17.92
2022-11-30T00:35:24.459Z,16.55
2022-11-30T00:40:26.003Z,20.52
2022-11-30T00:45:27.332Z,17.42
2022-11-30T00:50:28.591Z,20.70
2022-11-30T00:55:31.790Z,19.60
2022-11-30T01:00:33.317Z,18.45
2022-11-30T01:05:34.959Z,22.63
2022-11-30T01:10:38.614Z,22.80
2022-11-30T01:15:42.515Z,25.02
2022-11-30T01:20:44.127Z,20.17
2022-11-30T01:25:54.092Z,19.35
2022-11-30T01:30:57.566Z,22.90
2022-11-30T01:36:04.547Z,20.10
2022-11-30T01:41:07.552Z,22.08
2022-11-30T01:46:24.354Z,21.48
2022-11-30T01:51:32.776Z,21.95
2022-11-30T01:56:34.201Z,23.75
2022-11-30T02:01:35.711Z,22.35
2022-11-30T02:06:37.012Z,22.35
2022-11-30T02:11:38.336Z,19.80
2022-11-30T02:16:42.375Z,21.63
2022-11-30T02:21:53.127Z,20.65
2022-11-30T02:27:04.221Z,17.75
2022-11-30T02:32:28.844Z,20.73
2022-11-30T02:37:31.860Z,22.23
2022-11-30T02:42:33.150Z,21.67
2022-11-30T02:47:46.796Z,17.77
2022-11-30T02:52:49.028Z,19.02
2022-11-30T02:57:50.330Z,24.67
2022-11-30T03:02:51.646Z,22.50
2022-11-30T03:07:53.051Z,21.83
2022-11-30T03:13:00.460Z,20.10
2022-11-30T03:18:05.152Z,21.35
2022-11-30T03:28:07.692Z,23.90
2022-11-30T03:33:08.996Z,20.63
2022-11-30T03:38:10.452Z,23.73
2022-11-30T03:43:11.740Z,23.50
2022-11-30T03:48:13.037Z,20.70
2022-11-30T03:53:14.364Z,19.98
2022-11-30T03:58:15.690Z,22.15
2022-11-30T04:03:17.149Z,22.33
2022-11-30T04:08:18.489Z,22.80
2022-11-30T04:13:21.292Z,19.50
2022-11-30T04:18:24.566Z,21.13
2022-11-30T04:23:30.710Z,21.85
2022-11-30T04:28:32.328Z,21.55
2022-11-30T04:33:33.608Z,20.98
2022-11-30T04:38:36.644Z,21.17
2022-11-30T04:43:38.278Z,24.15
2022-11-30T04:48:39.570Z,21.63
2022-11-30T04:53:40.866Z,23.58
2022-11-30T04:58:42.208Z,21.45
2022-11-30T05:03:43.462Z,22.55
2022-11-30T05:08:44.812Z,22.52
2022-11-30T05:13:46.399Z,20.90
2022-11-30T05:18:47.712Z,22.75
2022-11-30T05:23:49.046Z,22.50
2022-11-30T05:28:50.393Z,25.80
2022-11-30T05:33:53.384Z,23.48
2022-11-30T05:38:54.689Z,25.15
2022-11-30T05:43:56.573Z,24.52
2022-11-30T05:48:57.887Z,24.77
2022-11-30T05:53:59.608Z,27.42
2022-11-30T05:59:00.944Z,26.70
2022-11-30T06:04:08.860Z,25.48
2022-11-30T06:09:10.536Z,26.73
2022-11-30T06:14:11.876Z,25.40
2022-11-30T06:19:13.130Z,26.70
2022-11-30T06:24:14.455Z,25.58
2022-11-30T06:29:15.810Z,26.55
2022-11-30T06:34:17.125Z,23.70
2022-11-30T06:39:31.411Z,25.98
2022-11-30T06:44:39.523Z,31.38
2022-11-30T06:49:40.946Z,30.77
2022-11-30T06:54:42.333Z,26.38
2022-11-30T06:59:43.764Z,29.83
2022-11-30T07:04:45.820Z,29.20
2022-11-30T07:09:47.411Z,28.13
2022-11-30T07:14:52.679Z,25.85
2022-11-30T07:19:54.062Z,23.40
2022-11-30T07:25:14.174Z,22.50
2022-11-30T07:30:15.682Z,18.75
2022-11-30T07:35:16.998Z,19.48
2022-11-30T07:40:18.263Z,25.48
2022-11-30T07:45:19.651Z,21.65
2022-11-30T07:50:21.362Z,22.83
2022-11-30T07:55:23.794Z,21.83
2022-11-30T08:00:25.384Z,17.70
2022-11-30T08:05:26.886Z,21.08
2022-11-30T08:10:28.171Z,20.20
2022-11-30T08:15:32.900Z,20.20
2022-11-30T08:20:34.884Z,19.58
2022-11-30T08:25:36.169Z,18.25
2022-11-30T08:30:37.498Z,16.45
2022-11-30T08:35:38.816Z,18.80
2022-11-30T08:40:40.198Z,18.48
2022-11-30T08:45:41.504Z,20.48
2022-11-30T08:50:42.855Z,24.33
2022-11-30T08:55:44.160Z,28.65
2022-11-30T09:00:45.620Z,29.60
2022-11-30T09:05:47.032Z,24.48
2022-11-30T09:10:48.308Z,25.73
2022-11-30T09:15:56.025Z,29.70
2022-11-30T09:21:02.139Z,27.02
2022-11-30T09:26:06.424Z,26.85
2022-11-30T09:31:11.786Z,30.40
2022-11-30T09:36:15.428Z,29.00
2022-11-30T09:41:28.702Z,29.23
2022-11-30T09:47:04.379Z,30.55
2022-11-30T09:52:11.642Z,30.45
2022-11-30T09:57:29.566Z,30.50
2022-11-30T10:02:33.815Z,26.13
2022-11-30T10:07:56.829Z,30.85
2022-11-30T10:13:17.014Z,27.65
2022-11-30T10:18:44.044Z,29.80
2022-11-30T10:24:04.414Z,24.35
2022-11-30T10:29:18.610Z,19.35
2022-11-30T10:34:35.131Z,17.50
2022-11-30T10:39:45.516Z,16.02
2022-11-30T10:45:03.187Z,20.27
2022-11-30T10:50:06.292Z,21.60
2022-11-30T10:55:15.217Z,25.70
2022-11-30T11:00:18.181Z,16.85
2022-11-30T11:05:30.786Z,17.08
2022-11-30T11:10:42.700Z,16.42
2022-11-30T11:15:58.581Z,20.33
2022-11-30T11:21:06.316Z,17.85
2022-11-30T11:26:29.662Z,19.30
2022-11-30T11:31:46.274Z,33.20
2022-11-30T11:36:47.558Z,19.60
2022-11-30T11:41:48.909Z,17.15
2022-11-30T11:47:02.667Z,19.70
2022-11-30T11:52:17.950Z,20.85
2022-11-30T11:57:25.189Z,21.13
2022-11-30T12:02:37.653Z,21.17
2022-11-30T12:07:50.427Z,24.42
2022-11-30T12:12:55.095Z,20.45
2022-11-30T12:18:15.933Z,26.42
2022-11-30T12:23:34.472Z,25.45
2022-11-30T12:28:41.948Z,20.67
2022-11-30T12:34:21.378Z,23.05
2022-11-30T12:39:31.813Z,26.00
2022-11-30T12:44:42.553Z,22.85
2022-11-30T12:50:10.305Z,26.52
2022-11-30T12:55:35.495Z,20.35
2022-11-30T13:01:06.443Z,25.85
2022-11-30T13:06:14.032Z,22.98
2022-11-30T13:11:24.443Z,22.25
2022-11-30T13:16:26.898Z,22.65
2022-11-30T13:21:39.557Z,27.08
2022-11-30T13:26:54.374Z,25.20
2022-11-30T13:37:09.236Z,23.75
2022-11-30T13:42:10.512Z,25.48
2022-11-30T13:47:19.487Z,23.42
2022-11-30T13:52:59.095Z,23.50
2022-11-30T13:58:00.424Z,22.15
2022-11-30T14:03:20.140Z,22.23
2022-11-30T14:08:21.439Z,22.38
2022-11-30T14:13:32.046Z,24.00
2022-11-30T14:18:40.497Z,20.90
2022-11-30T14:23:54.132Z,25.08
2022-11-30T14:29:10.859Z,20.80
2022-11-30T14:34:23.359Z,20.45
2022-11-30T14:39:31.827Z,18.90
2022-11-30T14:44:40.726Z,20.02
2022-11-30T14:49:47.549Z,19.83
2022-11-30T14:55:10.487Z,19.95
2022-11-30T15:00:20.778Z,17.10
2022-11-30T15:05:26.755Z,18.42
2022-11-30T15:10:34.020Z,17.15
2022-11-30T15:15:41.413Z,16.65
2022-11-30T15:20:57.544Z,16.90
2022-11-30T15:26:04.415Z,17.25
2022-11-30T15:31:09.733Z,15.57
2022-11-30T15:36:23.446Z,15.85
2022-11-30T15:41:34.708Z,14.77
2022-11-30T15:46:45.766Z,13.68
2022-11-30T15:51:59.679Z,13.05
2022-11-30T15:57:05.956Z,13.23
2022-11-30T16:02:31.589Z,12.00
2022-11-30T16:07:39.754Z,12.75
2022-11-30T16:12:43.200Z,14.02
2022-11-30T16:17:44.525Z,13.65
2022-11-30T16:22:48.144Z,13.75
2022-11-30T16:27:50.326Z,15.82
2022-11-30T16:32:51.638Z,13.38
2022-11-30T16:37:53.133Z,13.00
2022-11-30T16:42:54.479Z,12.93
2022-11-30T16:47:55.738Z,13.45
2022-11-30T16:52:57.047Z,12.57
2022-11-30T16:57:58.588Z,12.23
2022-11-30T17:03:06.267Z,13.13
2022-11-30T17:08:09.694Z,12.18
2022-11-30T17:13:15.095Z,12.75
2022-11-30T17:18:16.391Z,11.52
2022-11-30T17:23:17.774Z,13.90
2022-11-30T17:28:19.090Z,12.93
2022-11-30T17:33:20.406Z,11.73
2022-11-30T17:38:21.721Z,13.30
2022-11-30T17:43:23.072Z,13.50
2022-11-30T17:48:24.475Z,16.48
2022-11-30T17:53:25.866Z,13.20
2022-11-30T17:58:32.496Z,15.05
2022-11-30T18:03:35.522Z,14.10
2022-11-30T18:08:37.905Z,13.90
2022-11-30T18:13:39.905Z,11.68
2022-11-30T18:18:47.082Z,16.70
2022-11-30T18:23:50.006Z,14.32
2022-11-30T18:28:56.477Z,13.48
2022-11-30T18:34:02.926Z,14.10
2022-11-30T18:39:04.185Z,13.50
2022-11-30T18:44:05.704Z,12.75
2022-11-30T18:49:07.097Z,13.95
2022-11-30T18:54:10.225Z,14.05
2022-11-30T18:59:14.536Z,13.50
2022-11-30T19:04:15.937Z,12.50
2022-11-30T19:09:19.033Z,12.25
2022-11-30T19:14:20.345Z,13.60
2022-11-30T19:19:21.960Z,14.32
2022-11-30T19:24:23.837Z,14.18
2022-11-30T19:29:25.232Z,14.75
2022-11-30T19:34:26.597Z,14.02
2022-11-30T19:39:27.926Z,12.18
2022-11-30T19:44:29.244Z,14.05
2022-11-30T19:49:30.601Z,13.50
2022-11-30T19:54:31.957Z,13.30
2022-11-30T19:59:33.288Z,12.32
2022-11-30T20:04:34.605Z,12.32
2022-11-30T20:09:35.885Z,12.23
2022-11-30T20:14:37.219Z,12.90
2022-11-30T20:19:38.462Z,12.15
2022-11-30T20:24:39.789Z,12.13
2022-11-30T20:29:41.043Z,11.35
2022-11-30T20:34:46.317Z,10.68
2022-11-30T20:39:47.867Z,10.80
2022-11-30T20:44:49.843Z,12.63
2022-11-30T20:49:51.376Z,10.32
2022-11-30T20:54:52.643Z,10.25
2022-11-30T20:59:53.875Z,10.82
2022-11-30T21:04:55.160Z,11.45
2022-11-30T21:09:56.459Z,12.82
2022-11-30T21:14:57.843Z,11.43
2022-11-30T21:20:00.507Z,12.10
2022-11-30T21:25:01.788Z,12.32
2022-11-30T21:30:04.495Z,12.02
2022-11-30T21:35:06.536Z,11.73
2022-11-30T21:40:08.451Z,12.52
2022-11-30T21:45:10.712Z,11.23
2022-11-30T21:50:12.387Z,11.95
2022-11-30T21:55:13.711Z,11.75
2022-11-30T22:00:15.314Z,12.13
2022-11-30T22:05:16.573Z,12.13
2022-11-30T22:10:17.833Z,12.65
2022-11-30T22:15:19.085Z,14.45
2022-11-30T22:20:20.339Z,14.05
2022-11-30T22:25:21.603Z,15.02
2022-11-30T22:30:22.871Z,19.38
2022-11-30T22:35:24.256Z,16.42
2022-11-30T22:40:25.540Z,14.68
2022-11-30T22:45:26.811Z,16.52
2022-11-30T22:50:28.108Z,15.50
2022-11-30T22:55:29.555Z,18.05
2022-11-30T23:00:30.891Z,15.20
2022-11-30T23:05:34.531Z,16.27
2022-11-30T23:10:35.889Z,15.57
2022-11-30T23:15:37.185Z,17.42
2022-11-30T23:20:38.600Z,15.18
2022-11-30T23:25:39.912Z,15.52
2022-11-30T23:30:41.240Z,12.90
2022-11-30T23:35:43.478Z,14.80
2022-11-30T23:40:44.742Z,17.90
2022-11-30T23:45:46.275Z,17.05
2022-11-30T23:50:47.527Z,17.08
2022-11-30T23:55:49.175Z,18.00
